Time;durP1;ratioP1;P1;durP2;ratioP2;P2;SDS_P1;SDS_P2;PMS_P1;PMS_P2;Temp;Humidity;BMP_temperature;BMP_pressure;BME280_temperature;BME280_humidity;BME280_pressure;Samples;Min_cycle;Max_cycle;Signal;HPM_P1;HPM_P2
2023/10/14 00:01:24;;;;;;;13.82;2.00;;;12.10;83.50;;;;;;5082325;28;20051;-66
2023/10/14 00:03:51;;;;;;;11.23;2.22;;;12.00;83.60;;;;;;5075095;28;20451;-66
2023/10/14 00:06:18;;;;;;;11.13;2.20;;;12.00;83.70;;;;;;5054521;28;20061;-66
2023/10/14 00:09:01;;;;;;;11.52;2.20;;;12.00;83.30;;;;;;5072070;28;20044;-65
2023/10/14 00:11:42;;;;;;;15.15;2.45;;;11.90;83.40;;;;;;5071622;28;20094;-66
2023/10/14 00:14:15;;;;;;;15.73;2.45;;;11.90;83.50;;;;;;5071006;28;20120;-66
2023/10/14 00:16:42;;;;;;;14.48;2.50;;;11.90;83.10;;;;;;5072140;28;20056;-65
2023/10/14 00:19:09;;;;;;;14.85;2.75;;;11.90;83.10;;;;;;5072109;28;20457;-66
2023/10/14 00:21:36;;;;;;;15.00;3.08;;;11.90;83.10;;;;;;5070742;28;20069;-66
2023/10/14 00:24:06;;;;;;;18.50;2.92;;;11.90;83.10;;;;;;5071561;28;20503;-65
2023/10/14 00:26:33;;;;;;;13.98;3.17;;;11.70;82.80;;;;;;5072418;28;20071;-65
2023/10/14 00:31:41;;;;;;;16.73;3.50;;;11.70;82.80;;;;;;5059136;28;20048;-65
2023/10/14 00:34:07;;;;;;;20.60;3.10;;;11.60;82.30;;;;;;5071376;28;20518;-65
2023/10/14 00:36:34;;;;;;;18.95;3.67;;;11.50;82.30;;;;;;5071021;28;20048;-65
2023/10/14 00:39:12;;;;;;;14.85;3.13;;;11.50;81.40;;;;;;5072088;28;20098;-66
2023/10/14 00:41:44;;;;;;;14.23;3.13;;;11.40;81.40;;;;;;5071512;28;20454;-65
2023/10/14 00:44:11;;;;;;;14.48;3.42;;;11.40;81.30;;;;;;5071264;28;20051;-66
2023/10/14 00:46:42;;;;;;;14.15;2.67;;;11.30;81.10;;;;;;5071811;28;20198;-65
2023/10/14 00:49:11;;;;;;;15.95;2.90;;;11.20;80.70;;;;;;5071881;28;20055;-66
2023/10/14 00:51:42;;;;;;;14.80;3.17;;;11.10;80.70;;;;;;5071496;28;20115;-65
2023/10/14 00:54:12;;;;;;;16.38;3.05;;;11.10;80.90;;;;;;5071133;28;20499;-65
2023/10/14 00:56:47;;;;;;;10.70;2.42;;;11.00;80.50;;;;;;5070794;28;20629;-66
2023/10/14 00:59:14;;;;;;;13.90;3.50;;;11.00;80.50;;;;;;5071049;28;20538;-65
2023/10/14 01:01:55;;;;;;;19.77;3.28;;;10.90;80.70;;;;;;5071223;28;20048;-65
2023/10/14 01:04:28;;;;;;;17.98;3.42;;;10.80;80.60;;;;;;5071197;28;20064;-65
2023/10/14 01:06:55;;;;;;;18.73;3.22;;;10.80;80.60;;;;;;5071085;28;20505;-65
2023/10/14 01:09:31;;;;;;;14.35;3.17;;;10.70;80.70;;;;;;5071133;28;20115;-65
2023/10/14 01:11:58;;;;;;;19.88;3.03;;;10.60;80.70;;;;;;5070943;28;20449;-65
2023/10/14 01:14:24;;;;;;;24.30;3.33;;;10.60;80.80;;;;;;5071138;28;20071;-65
2023/10/14 01:16:50;;;;;;;18.27;3.30;;;10.60;81.00;;;;;;5069256;28;20506;-65
2023/10/14 01:19:21;;;;;;;17.58;3.10;;;10.50;81.00;;;;;;5053414;28;20114;-65
2023/10/14 01:21:51;;;;;;;16.10;3.00;;;10.50;81.00;;;;;;5070236;28;20111;-65
2023/10/14 01:24:17;;;;;;;14.73;2.88;;;10.40;80.70;;;;;;5053252;28;20131;-65
2023/10/14 01:27:01;;;;;;;13.90;2.65;;;10.30;80.50;;;;;;5070258;28;20498;-65
2023/10/14 01:29:31;;;;;;;16.73;2.87;;;10.30;80.50;;;;;;5066630;28;20041;-65
2023/10/14 01:35:54;;;;;;;13.52;2.70;;;10.20;80.30;;;;;;5027105;28;20094;-65
2023/10/14 01:37:57;;;;;;;20.70;3.30;;;10.10;80.20;;;;;;5059251;28;20067;-65
2023/10/14 01:42:51;;;;;;;20.23;3.30;;;10.00;80.00;;;;;;5068210;28;20090;-66
2023/10/14 01:45:20;;;;;;;18.93;2.80;;;10.00;79.70;;;;;;5070399;28;20059;-65
2023/10/14 01:48:05;;;;;;;17.03;3.07;;;9.90;79.60;;;;;;5056926;28;20048;-65
2023/10/14 01:50:32;;;;;;;15.47;3.33;;;9.80;79.60;;;;;;5070223;28;20044;-65
2023/10/14 01:53:08;;;;;;;14.53;2.53;;;9.80;79.90;;;;;;5070019;28;20420;-65
2023/10/14 01:55:35;;;;;;;14.90;2.72;;;9.80;79.90;;;;;;5070266;28;20086;-65
2023/10/14 01:58:02;;;;;;;14.87;3.10;;;9.70;80.10;;;;;;5079788;28;20090;-65
2023/10/14 02:00:35;;;;;;;15.50;2.83;;;9.70;80.00;;;;;;5070201;28;20044;-65
2023/10/14 02:03:06;;;;;;;15.87;2.70;;;9.70;80.10;;;;;;5052136;28;20351;-65
2023/10/14 02:05:40;;;;;;;9.13;2.50;;;9.70;80.00;;;;;;5070029;28;20044;-65
2023/10/14 02:08:15;;;;;;;17.13;2.97;;;9.70;80.00;;;;;;5069564;28;21036;-65
2023/10/14 02:10:47;;;;;;;19.03;3.27;;;9.60;79.90;;;;;;5056896;28;20048;-65
2023/10/14 02:13:16;;;;;;;14.50;2.60;;;9.60;79.90;;;;;;5068462;28;20040;-65
2023/10/14 02:15:50;;;;;;;17.67;2.40;;;9.60;80.00;;;;;;5069779;28;20124;-65
2023/10/14 02:18:20;;;;;;;15.70;2.70;;;9.60;79.80;;;;;;5069245;28;20056;-65
2023/10/14 02:20:56;;;;;;;14.60;2.70;;;9.60;80.00;;;;;;5069386;28;20483;-65
2023/10/14 02:23:30;;;;;;;11.27;2.27;;;9.60;80.00;;;;;;5069521;28;20143;-65
2023/10/14 02:25:56;;;;;;;17.60;2.77;;;9.60;80.00;;;;;;5069681;28;20091;-65
2023/10/14 02:28:39;;;;;;;17.93;2.90;;;9.60;79.80;;;;;;5069485;28;20044;-65
2023/10/14 02:31:18;;;;;;;12.37;2.47;;;9.60;80.00;;;;;;5052560;28;20063;-66
2023/10/14 02:33:47;;;;;;;10.00;2.43;;;9.50;80.00;;;;;;5069579;28;20040;-65
2023/10/14 02:36:16;;;;;;;15.90;2.67;;;9.50;80.00;;;;;;5069760;28;20048;-65
2023/10/14 02:38:56;;;;;;;10.73;2.50;;;9.50;79.80;;;;;;5068474;28;20040;-65
2023/10/14 02:41:26;;;;;;;17.67;3.03;;;9.50;80.00;;;;;;5070047;28;20072;-65
2023/10/14 02:44:28;;;;;;;16.98;3.03;;;9.60;79.70;;;;;;5069069;28;20045;-65
2023/10/14 02:46:54;;;;;;;15.63;2.70;;;9.60;79.90;;;;;;5065435;28;20052;-65
2023/10/14 02:49:24;;;;;;;14.97;2.73;;;9.60;79.90;;;;;;5055776;28;20542;-65
2023/10/14 02:51:52;;;;;;;21.50;3.00;;;9.60;79.80;;;;;;5069743;28;20040;-65
2023/10/14 02:54:27;;;;;;;15.53;3.10;;;9.50;79.80;;;;;;5068910;28;20048;-65
2023/10/14 02:56:59;;;;;;;15.10;2.57;;;9.50;80.00;;;;;;5069454;28;20056;-65
2023/10/14 02:59:38;;;;;;;12.70;2.90;;;9.50;79.80;;;;;;5069037;28;20048;-65
2023/10/14 03:02:48;;;;;;;16.33;2.87;;;9.50;79.50;;;;;;5069490;28;20083;-65
2023/10/14 03:07:33;;;;;;;17.43;2.30;;;9.60;79.40;;;;;;5069172;28;20114;-65
2023/10/14 03:10:28;;;;;;;18.10;3.40;;;9.60;79.30;;;;;;5068381;28;20078;-65
2023/10/14 03:12:57;;;;;;;23.10;3.53;;;9.60;79.50;;;;;;5069318;28;20135;-65
2023/10/14 03:15:23;;;;;;;16.27;3.13;;;9.60;79.50;;;;;;5069225;28;20114;-65
2023/10/14 03:17:55;;;;;;;21.23;3.40;;;9.60;79.40;;;;;;5068761;28;20080;-65
2023/10/14 03:23:00;;;;;;;22.87;3.60;;;9.70;79.30;;;;;;5068533;28;20071;-65
2023/10/14 03:25:27;;;;;;;16.07;2.90;;;9.70;79.30;;;;;;5068961;28;20091;-65
2023/10/14 03:30:58;;;;;;;20.80;3.17;;;9.70;78.60;;;;;;5018205;28;20449;-65
2023/10/14 03:33:32;;;;;;;;;;;9.70;78.50;;;;;;5068456;28;20549;-66
2023/10/14 03:36:05;;;;;;;15.87;3.10;;;9.70;78.00;;;;;;5064434;28;19989;-65
2023/10/14 03:41:42;;;;;;;16.70;3.20;;;9.60;78.60;;;;;;5068558;28;20052;-65
2023/10/14 03:46:35;;;;;;;13.23;2.73;;;9.60;77.90;;;;;;5066734;28;20082;-65
2023/10/14 03:49:06;;;;;;;15.37;2.93;;;9.60;78.20;;;;;;5070353;28;20143;-65
2023/10/14 03:51:33;;;;;;;17.83;2.47;;;9.60;78.10;;;;;;5072905;28;20135;-65
2023/10/14 03:54:08;;;;;;;13.10;2.90;;;9.60;78.00;;;;;;5071838;28;20037;-65
2023/10/14 03:56:34;;;;;;;17.13;2.80;;;9.60;78.20;;;;;;5071657;28;20059;-65
2023/10/14 03:59:01;;;;;;;18.17;3.30;;;9.60;78.00;;;;;;5072554;28;20395;-65
2023/10/14 04:09:40;;;;;;;15.80;3.00;;;9.80;77.40;;;;;;5072636;28;20055;-65
2023/10/14 04:12:30;;;;;;;17.30;2.80;;;9.90;77.30;;;;;;5048930;28;20401;-66
2023/10/14 04:14:54;;;;;;;22.10;3.00;;;10.00;77.30;;;;;;5066644;28;20052;-65
2023/10/14 04:17:22;;;;;;;20.70;2.83;;;10.00;77.20;;;;;;5071757;28;20110;-65
2023/10/14 04:19:54;;;;;;;17.37;2.50;;;10.00;77.40;;;;;;5072216;28;20475;-65
2023/10/14 04:22:53;;;;;;;15.90;2.90;;;10.00;77.20;;;;;;5072247;28;20052;-65
2023/10/14 04:30:44;;;;;;;13.93;2.47;;;10.10;77.50;;;;;;5072151;28;20044;-66
2023/10/14 04:33:18;;;;;;;16.27;3.23;;;10.10;77.20;;;;;;5072101;28;20036;-65
2023/10/14 04:35:57;;;;;;;13.23;2.93;;;10.10;77.40;;;;;;5068821;28;20131;-65
2023/10/14 04:38:28;;;;;;;11.83;2.90;;;10.00;77.60;;;;;;5069068;28;20423;-65
2023/10/14 04:40:58;;;;;;;16.25;3.53;;;10.00;77.70;;;;;;5069116;28;20523;-66
2023/10/14 04:45:52;;;;;;;16.23;3.17;;;9.90;77.80;;;;;;5068862;28;20049;-65
2023/10/14 04:48:27;;;;;;;22.10;3.10;;;9.90;77.70;;;;;;5068511;28;20056;-65
2023/10/14 04:51:00;;;;;;;17.27;3.13;;;9.80;77.90;;;;;;5068608;28;20048;-65
2023/10/14 04:53:26;;;;;;;17.27;2.80;;;9.80;77.80;;;;;;5068706;28;20045;-65
2023/10/14 04:55:55;;;;;;;18.53;3.70;;;9.80;77.50;;;;;;5068652;28;20526;-65
2023/10/14 04:58:25;;;;;;;19.47;3.43;;;9.80;77.50;;;;;;5066772;28;20476;-65
2023/10/14 05:00:52;;;;;;;17.50;3.27;;;9.70;77.30;;;;;;5068125;28;20594;-65
2023/10/14 05:03:22;;;;;;;20.60;3.67;;;9.70;77.00;;;;;;5066870;28;20063;-65
2023/10/14 05:05:50;;;;;;;19.30;3.03;;;9.80;76.90;;;;;;5057305;28;20570;-65
2023/10/14 05:08:21;;;;;;;20.97;3.73;;;9.70;76.30;;;;;;5068465;28;20053;-65
2023/10/14 05:10:50;;;;;;;18.63;3.70;;;9.70;76.20;;;;;;5067883;28;20052;-65
2023/10/14 05:13:19;;;;;;;21.20;3.13;;;9.80;75.90;;;;;;5068103;28;20054;-65
2023/10/14 05:15:53;;;;;;;17.97;3.17;;;9.70;75.70;;;;;;5067578;28;20074;-65
2023/10/14 05:18:27;;;;;;;23.27;3.87;;;9.80;75.50;;;;;;5065228;28;20419;-65
2023/10/14 05:21:02;;;;;;;28.17;4.07;;;9.80;75.50;;;;;;5067255;28;20495;-65
2023/10/14 05:23:31;;;;;;;19.87;3.37;;;9.70;75.60;;;;;;5067625;28;20101;-65
2023/10/14 05:26:06;;;;;;;15.83;3.20;;;9.70;75.80;;;;;;5068079;28;20048;-65
2023/10/14 05:28:36;;;;;;;19.00;3.53;;;9.70;75.80;;;;;;5061832;28;20056;-65
2023/10/14 05:31:08;;;;;;;15.70;3.70;;;9.70;75.70;;;;;;5068775;28;20044;-65
2023/10/14 05:33:37;;;;;;;17.53;3.40;;;9.70;75.80;;;;;;5064094;28;20048;-65
2023/10/14 05:36:05;;;;;;;21.53;3.27;;;9.70;75.80;;;;;;5067411;28;20418;-65
2023/10/14 05:38:31;;;;;;;19.93;3.73;;;9.70;75.90;;;;;;5067719;28;20055;-65
2023/10/14 05:41:00;;;;;;;17.87;3.23;;;9.70;75.90;;;;;;5067313;28;20045;-65
2023/10/14 05:43:26;;;;;;;19.43;3.43;;;9.70;75.90;;;;;;5050505;28;20056;-65
2023/10/14 05:45:52;;;;;;;18.17;3.77;;;9.70;76.10;;;;;;5049712;28;20051;-65
2023/10/14 05:48:26;;;;;;;19.07;3.47;;;9.70;75.90;;;;;;5068151;28;20127;-65
2023/10/14 05:50:56;;;;;;;13.53;3.70;;;9.70;76.20;;;;;;5070276;28;20063;-65
2023/10/14 05:53:25;;;;;;;20.17;3.77;;;9.60;75.90;;;;;;5069612;28;20036;-65
2023/10/14 05:56:12;;;;;;;16.77;3.20;;;9.60;75.70;;;;;;5070031;28;20051;-65
2023/10/14 05:58:38;;;;;;;19.07;3.90;;;9.60;75.80;;;;;;5069297;28;20044;-65
2023/10/14 06:01:09;;;;;;;19.77;3.63;;;9.60;75.90;;;;;;5070026;28;20074;-65
2023/10/14 06:03:34;;;;;;;13.93;3.33;;;9.50;75.80;;;;;;5070083;28;20055;-65
2023/10/14 06:06:09;;;;;;;21.00;4.20;;;9.50;75.80;;;;;;5070450;28;20052;-65
2023/10/14 06:08:38;;;;;;;14.37;3.30;;;9.50;75.90;;;;;;5070343;28;20044;-65
2023/10/14 06:11:05;;;;;;;17.13;3.90;;;9.40;75.60;;;;;;5070209;28;20198;-65
2023/10/14 06:13:32;;;;;;;14.80;3.23;;;9.40;75.60;;;;;;5069422;28;21402;-65
2023/10/14 06:16:00;;;;;;;15.90;3.47;;;9.40;75.00;;;;;;5069197;28;20510;-65
2023/10/14 06:18:29;;;;;;;15.13;2.90;;;9.50;75.00;;;;;;5070138;28;20119;-65
2023/10/14 06:20:57;;;;;;;21.33;3.30;;;9.50;75.00;;;;;;5069803;28;20058;-65
2023/10/14 06:23:26;;;;;;;13.27;3.27;;;9.50;74.70;;;;;;5069420;28;20045;-65
2023/10/14 06:25:56;;;;;;;17.27;3.63;;;9.50;74.40;;;;;;5069985;28;20048;-65
2023/10/14 06:28:22;;;;;;;14.33;3.30;;;9.50;74.50;;;;;;5069348;28;20048;-65
2023/10/14 06:30:48;;;;;;;21.87;3.23;;;9.50;74.60;;;;;;5052176;28;20048;-65
2023/10/14 06:33:13;;;;;;;15.77;2.80;;;9.50;74.60;;;;;;5069481;28;20040;-65
2023/10/14 06:35:42;;;;;;;21.47;4.00;;;9.50;74.60;;;;;;5069863;28;20088;-65
2023/10/14 06:38:17;;;;;;;14.43;3.37;;;9.50;74.70;;;;;;5069806;28;20113;-65
2023/10/14 06:40:44;;;;;;;20.47;3.00;;;9.50;74.40;;;;;;5065279;28;20044;-65
2023/10/14 06:43:10;;;;;;;16.57;3.73;;;9.50;74.70;;;;;;5068934;28;20047;-65
2023/10/14 06:45:37;;;;;;;18.57;3.33;;;9.60;74.10;;;;;;5067574;28;20048;-65
2023/10/14 06:48:05;;;;;;;20.93;4.00;;;9.60;74.70;;;;;;5069920;28;20068;-65
2023/10/14 06:50:32;;;;;;;18.37;3.53;;;9.70;74.50;;;;;;5069689;28;20446;-65
2023/10/14 06:53:07;;;;;;;22.03;4.23;;;9.70;74.60;;;;;;5051251;28;20128;-65
2023/10/14 06:55:40;;;;;;;17.57;3.37;;;9.70;74.40;;;;;;5068967;28;20048;-65
2023/10/14 06:58:11;;;;;;;21.27;4.17;;;9.70;74.60;;;;;;5072613;28;20067;-65
2023/10/14 07:00:37;;;;;;;14.02;3.75;;;9.80;74.70;;;;;;5082413;28;20040;-65
2023/10/14 07:03:12;;;;;;;25.30;4.00;;;9.80;74.70;;;;;;5069214;28;20537;-65
2023/10/14 07:05:48;;;;;;;17.37;3.40;;;9.90;74.70;;;;;;5067026;28;20044;-65
2023/10/14 07:08:15;;;;;;;14.77;3.73;;;10.00;75.10;;;;;;5088496;28;20391;-65
2023/10/14 07:10:41;;;;;;;21.23;4.00;;;10.00;75.10;;;;;;5078144;28;20044;-65
2023/10/14 07:13:08;;;;;;;21.93;3.80;;;10.00;75.00;;;;;;5073700;28;20063;-65
2023/10/14 07:15:38;;;;;;;19.50;3.70;;;10.10;74.90;;;;;;5075953;28;20484;-65
2023/10/14 07:18:04;;;;;;;20.17;3.37;;;10.10;74.70;;;;;;5068987;28;20040;-65
2023/10/14 07:20:30;;;;;;;17.80;3.83;;;10.30;74.20;;;;;;5069849;28;20067;-65
2023/10/14 07:22:59;;;;;;;21.13;3.80;;;10.30;74.50;;;;;;5078808;28;20048;-65
2023/10/14 07:25:32;;;;;;;20.20;3.90;;;10.40;74.40;;;;;;5077691;28;20049;-65
2023/10/14 07:27:59;;;;;;;19.93;3.90;;;10.50;74.90;;;;;;5076433;28;20483;-65
2023/10/14 07:30:29;;;;;;;19.57;3.40;;;10.50;74.00;;;;;;5080105;28;20181;-65
2023/10/14 07:32:55;;;;;;;15.37;3.23;;;10.70;73.80;;;;;;5074088;28;20044;-65
2023/10/14 07:35:22;;;;;;;19.77;3.70;;;10.90;72.90;;;;;;5067540;28;20068;-65
2023/10/14 07:37:49;;;;;;;19.55;3.58;;;11.00;72.70;;;;;;5077274;28;20110;-65
2023/10/14 07:40:23;;;;;;;14.98;3.17;;;11.00;72.90;;;;;;5072456;28;20460;-65
2023/10/14 07:42:59;;;;;;;18.47;3.07;;;11.00;72.80;;;;;;5080306;28;20056;-65
2023/10/14 07:45:29;;;;;;;11.07;3.03;;;11.10;73.00;;;;;;5081448;28;20091;-65
2023/10/14 07:47:56;;;;;;;14.57;3.33;;;11.00;72.60;;;;;;5077077;28;20485;-65
2023/10/14 07:50:25;;;;;;;17.13;3.40;;;11.10;72.20;;;;;;5067731;28;20498;-65
2023/10/14 07:52:58;;;;;;;15.77;3.47;;;11.10;72.00;;;;;;5073015;28;20488;-65
2023/10/14 07:55:25;;;;;;;15.23;3.33;;;11.10;72.10;;;;;;5074069;28;20048;-64
2023/10/14 07:57:51;;;;;;;15.70;3.63;;;11.20;71.60;;;;;;5058028;28;20049;-65
2023/10/14 08:00:17;;;;;;;18.58;3.00;;;11.30;71.00;;;;;;5075902;28;20093;-65
2023/10/14 08:02:43;;;;;;;14.75;3.08;;;11.30;70.50;;;;;;5075026;28;20495;-65
2023/10/14 08:05:10;;;;;;;18.25;3.20;;;11.30;70.70;;;;;;5064567;28;20043;-65
2023/10/14 08:07:45;;;;;;;15.98;3.25;;;11.40;71.60;;;;;;5076749;28;20063;-65
2023/10/14 08:10:18;;;;;;;18.67;3.10;;;11.40;70.80;;;;;;5081084;28;20125;-65
2023/10/14 08:12:50;;;;;;;18.40;3.20;;;11.40;71.50;;;;;;5086095;28;20066;-65
2023/10/14 08:15:19;;;;;;;12.32;2.45;;;11.40;71.60;;;;;;5082366;28;20045;-66
2023/10/14 08:17:48;;;;;;;11.40;3.28;;;11.40;71.50;;;;;;5071965;28;20403;-65
2023/10/14 08:20:18;;;;;;;12.43;2.53;;;11.50;70.40;;;;;;5071485;28;20082;-65
2023/10/14 08:22:46;;;;;;;11.43;2.85;;;11.50;71.40;;;;;;5070974;28;20411;-66
2023/10/14 08:25:13;;;;;;;16.05;3.15;;;11.50;70.90;;;;;;5069312;28;20055;-65
2023/10/14 08:27:41;;;;;;;18.33;3.08;;;11.60;70.10;;;;;;5070884;28;20055;-65
2023/10/14 08:30:11;;;;;;;16.80;2.88;;;11.70;70.00;;;;;;5053646;28;20606;-65
2023/10/14 08:32:40;;;;;;;11.95;2.95;;;11.70;70.20;;;;;;5071020;28;20048;-65
2023/10/14 08:35:17;;;;;;;14.43;3.13;;;11.70;69.90;;;;;;5064324;28;20067;-65
2023/10/14 08:37:48;;;;;;;13.60;2.60;;;11.70;69.50;;;;;;5070895;28;20429;-65
2023/10/14 08:40:19;;;;;;;17.77;3.05;;;11.90;69.70;;;;;;5072039;28;20123;-65
2023/10/14 08:43:00;;;;;;;14.20;2.60;;;11.90;69.10;;;;;;5059368;28;20135;-65
2023/10/14 08:45:26;;;;;;;9.70;2.60;;;11.90;69.10;;;;;;5063902;28;20080;-65
2023/10/14 08:47:54;;;;;;;16.67;3.63;;;12.00;68.30;;;;;;5060725;28;20080;-65
2023/10/14 08:50:23;;;;;;;10.07;2.80;;;12.00;69.90;;;;;;5043811;28;20072;-66
2023/10/14 08:52:51;;;;;;;12.52;4.32;;;12.10;69.40;;;;;;5062667;28;20045;-66
2023/10/14 08:55:19;;;;;;;12.40;3.03;;;12.10;69.30;;;;;;5064174;28;20048;-66
2023/10/14 08:57:45;;;;;;;12.70;3.00;;;12.20;69.70;;;;;;5044790;28;20116;-65
2023/10/14 09:00:19;;;;;;;15.77;3.53;;;12.30;69.50;;;;;;5062838;28;20041;-65
2023/10/14 09:02:49;;;;;;;19.23;3.60;;;12.30;68.90;;;;;;5065818;28;20102;-66
2023/10/14 09:05:16;;;;;;;19.35;3.90;;;12.50;68.40;;;;;;5064172;28;20037;-66
2023/10/14 09:07:44;;;;;;;21.35;3.83;;;12.50;68.00;;;;;;5071370;28;20094;-65
2023/10/14 09:10:11;;;;;;;17.80;3.95;;;12.50;67.70;;;;;;5052645;28;20502;-65
2023/10/14 09:12:38;;;;;;;15.43;3.38;;;12.70;67.40;;;;;;5071467;28;20969;-65
2023/10/14 09:15:04;;;;;;;15.77;3.13;;;12.80;67.60;;;;;;5071359;28;20110;-65
2023/10/14 09:17:30;;;;;;;12.93;3.17;;;12.70;68.70;;;;;;5071540;28;20084;-65
2023/10/14 09:19:56;;;;;;;9.65;2.75;;;12.50;66.20;;;;;;5071101;28;20045;-65
2023/10/14 09:22:28;;;;;;;12.75;2.67;;;12.40;67.60;;;;;;5070565;28;20552;-65
2023/10/14 09:24:58;;;;;;;;;;;12.10;66.60;;;;;;5071449;28;20063;-65
2023/10/14 09:27:26;;;;;;;11.88;2.72;;;12.00;65.40;;;;;;5071163;28;19987;-65
2023/10/14 09:29:56;;;;;;;10.65;3.20;;;11.90;67.60;;;;;;5070884;28;20052;-65
2023/10/14 09:32:23;;;;;;;11.07;2.75;;;11.80;67.30;;;;;;5070727;28;20046;-65
2023/10/14 09:34:51;;;;;;;15.55;3.33;;;11.70;67.60;;;;;;5069413;28;20449;-65
2023/10/14 09:37:17;;;;;;;13.57;2.88;;;11.80;68.00;;;;;;5070396;28;20122;-65
2023/10/14 09:39:48;;;;;;;9.70;2.72;;;11.90;68.10;;;;;;5068848;28;20040;-65
2023/10/14 09:42:18;;;;;;;18.27;3.17;;;12.10;68.60;;;;;;5069241;28;20049;-65
2023/10/14 09:44:45;;;;;;;11.70;2.38;;;12.30;67.60;;;;;;5069746;28;20057;-65
2023/10/14 09:47:22;;;;;;;11.80;3.20;;;12.40;67.80;;;;;;5070031;28;20079;-65
2023/10/14 09:49:48;;;;;;;13.30;2.55;;;12.50;66.80;;;;;;5069569;28;20052;-65
2023/10/14 09:52:17;;;;;;;7.97;2.50;;;12.40;68.10;;;;;;5069386;28;20052;-65
2023/10/14 09:54:43;;;;;;;12.88;2.83;;;12.40;68.50;;;;;;5070796;28;20044;-65
2023/10/14 09:57:12;;;;;;;11.30;2.78;;;12.30;68.00;;;;;;5069752;28;20055;-65
2023/10/14 09:59:44;;;;;;;14.02;2.70;;;12.10;68.20;;;;;;5070682;28;20051;-65
2023/10/14 10:02:11;;;;;;;11.65;2.25;;;11.90;68.30;;;;;;5053478;28;20088;-65
2023/10/14 10:04:42;;;;;;;11.02;2.00;;;11.70;68.90;;;;;;5070507;28;20048;-64
2023/10/14 10:07:26;;;;;;;14.15;2.53;;;11.50;68.60;;;;;;5070331;28;20124;-65
2023/10/14 10:10:30;;;;;;;12.45;2.33;;;11.30;69.40;;;;;;5070798;28;20135;-65
2023/10/14 10:12:57;;;;;;;12.10;2.40;;;11.10;70.10;;;;;;4976737;28;20047;-66
2023/10/14 10:15:24;;;;;;;7.88;1.85;;;11.00;70.30;;;;;;5052707;28;20117;-65
2023/10/14 10:18:04;;;;;;;12.65;1.98;;;11.10;70.00;;;;;;5070126;28;20055;-65
2023/10/14 10:20:35;;;;;;;10.82;2.28;;;11.20;70.00;;;;;;5069696;28;20083;-65
2023/10/14 10:23:01;;;;;;;8.82;1.65;;;11.40;68.10;;;;;;5063994;28;20052;-65
2023/10/14 10:25:36;;;;;;;9.18;2.00;;;11.60;68.60;;;;;;5067204;28;20125;-65
2023/10/14 10:28:27;;;;;;;12.65;4.35;;;11.70;67.80;;;;;;5068302;28;21519;-64
2023/10/14 10:30:58;;;;;;;11.07;2.00;;;11.90;66.70;;;;;;5067295;28;20487;-64
2023/10/14 10:33:49;;;;;;;13.90;3.30;;;12.00;67.50;;;;;;5065952;28;20052;-65
2023/10/14 10:36:25;;;;;;;11.95;2.30;;;12.20;66.90;;;;;;5067013;28;20068;-65
2023/10/14 10:38:55;;;;;;;12.18;2.40;;;12.30;68.00;;;;;;5067130;28;20048;-64
2023/10/14 10:41:26;;;;;;;15.65;2.88;;;12.40;66.70;;;;;;5068299;28;20052;-65
2023/10/14 10:44:02;;;;;;;9.68;2.15;;;12.50;66.70;;;;;;5058531;28;20527;-65
2023/10/14 10:46:29;;;;;;;17.10;2.60;;;12.60;67.70;;;;;;5065780;28;20071;-65
2023/10/14 10:48:55;;;;;;;14.15;2.70;;;12.80;67.80;;;;;;5065667;28;20044;-64
2023/10/14 10:51:21;;;;;;;10.05;2.92;;;12.90;68.00;;;;;;5065677;28;20145;-65
2023/10/14 10:53:52;;;;;;;12.95;2.70;;;12.80;66.00;;;;;;5066161;28;20066;-65
2023/10/14 10:56:19;;;;;;;11.57;2.88;;;12.70;65.90;;;;;;5064827;28;20392;-64
2023/10/14 10:58:45;;;;;;;12.90;3.33;;;12.50;65.90;;;;;;5065987;28;20047;-65
2023/10/14 11:01:12;;;;;;;18.48;3.33;;;12.30;65.00;;;;;;5066325;28;20040;-65
2023/10/14 11:03:38;;;;;;;20.17;3.92;;;12.20;64.90;;;;;;5066314;28;20052;-65
2023/10/14 11:06:04;;;;;;;16.05;3.38;;;12.10;65.60;;;;;;5063520;28;20040;-65
2023/10/14 11:08:30;;;;;;;13.38;3.67;;;12.10;66.10;;;;;;5066493;28;20054;-65
2023/10/14 11:10:57;;;;;;;15.15;3.35;;;12.20;66.20;;;;;;5067191;28;20305;-64
2023/10/14 11:13:23;;;;;;;16.55;4.25;;;12.40;66.20;;;;;;5065947;28;20120;-65
2023/10/14 11:15:50;;;;;;;17.58;3.58;;;12.50;64.30;;;;;;5065367;28;20151;-65
2023/10/14 11:18:18;;;;;;;10.82;2.90;;;12.80;65.50;;;;;;5069507;28;20036;-65
2023/10/14 11:20:45;;;;;;;12.68;3.05;;;12.70;65.30;;;;;;5067316;28;20048;-65
2023/10/14 11:23:12;;;;;;;12.75;2.85;;;12.40;66.40;;;;;;5066999;28;20044;-64
2023/10/14 11:25:41;;;;;;;9.38;2.25;;;12.10;66.70;;;;;;5066393;28;20132;-64
2023/10/14 11:28:09;;;;;;;11.23;2.35;;;12.00;67.10;;;;;;5066898;28;20044;-65
2023/10/14 11:30:44;;;;;;;10.15;3.00;;;11.90;66.90;;;;;;5067181;28;20037;-65
2023/10/14 11:33:11;;;;;;;17.42;3.28;;;11.90;67.10;;;;;;5063386;28;20395;-65
2023/10/14 11:35:38;;;;;;;19.52;4.07;;;12.00;67.10;;;;;;5064776;28;20063;-65
2023/10/14 11:38:07;;;;;;;13.10;3.17;;;12.00;67.10;;;;;;5066899;28;20067;-65
2023/10/14 11:40:37;;;;;;;16.15;3.80;;;12.10;66.40;;;;;;5065616;28;20637;-65
2023/10/14 11:43:06;;;;;;;14.63;3.60;;;12.30;66.00;;;;;;5064733;28;20045;-65
2023/10/14 11:45:35;;;;;;;15.90;4.05;;;12.30;65.80;;;;;;5064886;28;20407;-65
2023/10/14 11:48:01;;;;;;;16.70;3.80;;;12.30;65.50;;;;;;5066616;28;20506;-65
2023/10/14 11:50:30;;;;;;;22.65;3.40;;;12.20;66.00;;;;;;5066702;28;20047;-65
2023/10/14 11:52:57;;;;;;;23.23;3.92;;;12.20;65.50;;;;;;5065434;28;20568;-65
2023/10/14 11:55:27;;;;;;;15.63;3.40;;;12.20;65.30;;;;;;5065914;28;20044;-65
2023/10/14 11:57:58;;;;;;;15.80;3.75;;;12.10;65.60;;;;;;5065645;28;20123;-65
2023/10/14 12:00:23;;;;;;;14.43;4.38;;;12.00;64.50;;;;;;5066716;28;20554;-65
2023/10/14 12:02:52;;;;;;;16.85;3.95;;;12.00;64.10;;;;;;5057760;28;20066;-65
2023/10/14 12:05:19;;;;;;;14.93;3.40;;;12.10;64.40;;;;;;5065744;28;20051;-65
2023/10/14 12:07:51;;;;;;;13.07;3.53;;;12.20;63.40;;;;;;5037115;28;20060;-65
2023/10/14 12:10:17;;;;;;;9.85;3.72;;;12.30;63.30;;;;;;5031486;28;20132;-65
2023/10/14 12:12:51;;;;;;;14.10;3.13;;;12.30;61.10;;;;;;5051689;28;20056;-65
2023/10/14 12:15:18;;;;;;;13.70;3.00;;;12.50;62.10;;;;;;5051210;28;20056;-65
2023/10/14 12:17:45;;;;;;;13.68;3.35;;;12.50;62.60;;;;;;5027331;28;20053;-65
2023/10/14 12:20:11;;;;;;;8.38;4.25;;;12.50;58.00;;;;;;5049855;28;20127;-65
2023/10/14 12:22:41;;;;;;;17.58;7.05;;;12.50;58.30;;;;;;5051235;28;20515;-65
2023/10/14 12:25:08;;;;;;;13.00;6.30;;;12.60;58.80;;;;;;5049861;28;20168;-65
2023/10/14 12:27:35;;;;;;;13.77;9.05;;;12.60;58.10;;;;;;5051530;28;20075;-65
2023/10/14 12:30:01;;;;;;;11.10;10.05;;;12.60;58.50;;;;;;5052343;28;20067;-66
2023/10/14 12:32:30;;;;;;;14.43;11.43;;;12.60;58.40;;;;;;5052375;28;20048;-65
2023/10/14 12:34:58;;;;;;;15.05;13.55;;;12.60;58.20;;;;;;5053284;28;20052;-65
2023/10/14 12:37:25;;;;;;;13.38;7.57;;;12.60;57.70;;;;;;5055229;28;20091;-65
2023/10/14 12:40:11;;;;;;;13.35;5.93;;;12.70;58.80;;;;;;5054788;28;20550;-65
2023/10/14 12:42:47;;;;;;;11.68;5.85;;;12.70;58.60;;;;;;5054681;28;20132;-65
2023/10/14 12:45:14;;;;;;;14.52;6.00;;;12.70;59.10;;;;;;5050604;28;20619;-65
2023/10/14 12:47:47;;;;;;;10.70;5.15;;;12.60;59.20;;;;;;5054215;28;20682;-65
2023/10/14 12:50:19;;;;;;;13.07;4.53;;;12.50;59.20;;;;;;5052939;28;20048;-65
2023/10/14 12:53:04;;;;;;;14.02;3.70;;;12.50;60.00;;;;;;5053711;28;20048;-65
2023/10/14 12:55:33;;;;;;;17.50;4.72;;;12.50;60.10;;;;;;5053137;28;20376;-65
2023/10/14 12:57:58;;;;;;;11.00;3.10;;;12.50;60.50;;;;;;5054515;28;20498;-65
2023/10/14 13:00:30;;;;;;;14.07;8.68;;;12.50;61.50;;;;;;5054493;28;20097;-65
2023/10/14 13:02:59;;;;;;;10.13;5.75;;;12.30;58.20;;;;;;5053510;28;20139;-65
2023/10/14 13:05:26;;;;;;;9.95;5.70;;;12.20;59.30;;;;;;5054167;28;20055;-64
2023/10/14 13:07:53;;;;;;;13.48;4.38;;;12.10;60.00;;;;;;5053961;28;20106;-65
2023/10/14 13:10:20;;;;;;;10.77;3.60;;;12.10;60.60;;;;;;5051052;28;20040;-65
2023/10/14 13:12:55;;;;;;;15.05;12.65;;;12.10;61.10;;;;;;5052071;28;20051;-65
2023/10/14 13:15:30;;;;;;;18.75;16.23;;;12.00;60.20;;;;;;5050778;28;20052;-65
2023/10/14 13:18:00;;;;;;;23.10;19.35;;;12.00;60.60;;;;;;5051063;28;20075;-65
2023/10/14 13:20:29;;;;;;;19.15;7.30;;;11.90;60.70;;;;;;5050598;28;20544;-65
2023/10/14 13:23:03;;;;;;;16.20;3.92;;;11.90;60.10;;;;;;5049820;28;20106;-65
2023/10/14 13:25:32;;;;;;;11.00;2.60;;;12.00;60.20;;;;;;5046820;28;20063;-65
2023/10/14 13:27:58;;;;;;;14.38;3.08;;;12.10;60.50;;;;;;5048183;28;20139;-65
2023/10/14 13:30:23;;;;;;;13.68;2.95;;;12.10;59.00;;;;;;5047105;28;20121;-65
2023/10/14 13:32:56;;;;;;;17.55;3.60;;;12.20;59.40;;;;;;5043699;28;20595;-65
2023/10/14 13:35:23;;;;;;;15.60;4.65;;;12.20;59.70;;;;;;5058645;28;20529;-65